createdAt,value
2019-04-03T00:03:10.825Z,8.23
2019-04-03T00:08:13.380Z,8.60
2019-04-03T00:13:15.902Z,8.63
2019-04-03T00:18:18.438Z,8.77
2019-04-03T00:23:22.426Z,8.53
2019-04-03T00:28:23.536Z,8.50
2019-04-03T00:33:26.115Z,8.63
2019-04-03T00:38:31.167Z,9.10
2019-04-03T00:43:33.728Z,8.47
2019-04-03T00:48:36.160Z,8.37
2019-04-03T00:53:38.677Z,7.97
2019-04-03T00:58:41.728Z,7.50
2019-04-03T01:03:44.382Z,8.10
2019-04-03T01:08:46.951Z,7.70
2019-04-03T01:13:49.533Z,7.30
2019-04-03T01:18:52.115Z,7.37
2019-04-03T01:23:54.757Z,7.77
2019-04-03T01:28:57.237Z,7.13
2019-04-03T01:33:59.800Z,7.83
2019-04-03T01:39:02.658Z,7.80
2019-04-03T01:44:05.025Z,7.57
2019-04-03T01:49:07.759Z,7.50
2019-04-03T01:54:10.425Z,7.00
2019-04-03T01:59:12.893Z,8.17
2019-04-03T02:04:16.030Z,8.53
2019-04-03T02:09:18.544Z,7.90
2019-04-03T02:14:22.131Z,7.53
2019-04-03T02:19:25.747Z,7.80
2019-04-03T02:24:26.278Z,7.70
2019-04-03T02:29:28.811Z,7.70
2019-04-03T02:34:33.694Z,7.60
2019-04-03T02:39:33.814Z,8.03
2019-04-03T02:44:36.361Z,8.07
2019-04-03T02:49:41.501Z,8.00
2019-04-03T02:54:41.582Z,7.60
2019-04-03T02:59:44.105Z,8.60
2019-04-03T03:04:46.699Z,8.10
2019-04-03T03:09:49.605Z,7.70
2019-04-03T03:14:52.589Z,7.97
2019-04-03T03:19:54.886Z,8.27
2019-04-03T03:24:59.693Z,8.03
2019-04-03T03:30:00.357Z,8.93
2019-04-03T03:35:12.472Z,8.57
2019-04-03T03:40:05.548Z,8.80
2019-04-03T03:45:08.169Z,8.70
2019-04-03T03:50:10.806Z,8.00
2019-04-03T03:55:13.442Z,8.17
2019-04-03T04:00:16.136Z,8.30
2019-04-03T04:05:21.654Z,8.57
2019-04-03T04:10:24.412Z,8.70
2019-04-03T04:15:28.724Z,8.33
2019-04-03T04:20:27.344Z,8.17
2019-04-03T04:25:30.954Z,8.20
2019-04-03T04:30:32.644Z,8.57
2019-04-03T04:35:35.318Z,9.20
2019-04-03T04:40:37.887Z,9.17
2019-04-03T04:45:42.208Z,8.57
2019-04-03T04:50:43.197Z,8.97
2019-04-03T04:55:45.723Z,8.60
2019-04-03T05:00:48.325Z,8.60
2019-04-03T05:05:50.856Z,8.53
2019-04-03T05:10:53.396Z,8.43
2019-04-03T05:15:55.958Z,8.27
2019-04-03T05:20:58.771Z,8.70
2019-04-03T05:26:02.065Z,7.90
2019-04-03T05:31:03.936Z,8.60
2019-04-03T05:36:06.699Z,8.30
2019-04-03T05:41:09.476Z,8.40
2019-04-03T05:46:11.922Z,8.40
2019-04-03T05:51:14.484Z,9.07
2019-04-03T05:56:17.297Z,8.10
2019-04-03T06:01:19.577Z,7.93
2019-04-03T06:06:22.227Z,7.70
2019-04-03T06:11:24.844Z,7.50
2019-04-03T06:16:27.490Z,8.27
2019-04-03T06:21:30.168Z,7.93
2019-04-03T06:26:32.872Z,8.00
2019-04-03T06:31:35.406Z,7.97
2019-04-03T06:36:37.759Z,8.03
2019-04-03T06:41:41.931Z,7.93
2019-04-03T06:46:42.951Z,8.93
2019-04-03T06:51:45.702Z,8.03
2019-04-03T06:56:48.237Z,8.23
2019-04-03T07:01:52.818Z,8.30
2019-04-03T07:06:55.769Z,8.57
2019-04-03T07:11:57.400Z,11.60
2019-04-03T07:17:00.700Z,8.30
2019-04-03T07:22:01.298Z,8.60
2019-04-03T07:27:05.977Z,7.73
2019-04-03T07:32:06.450Z,7.73
2019-04-03T07:37:09.015Z,7.73
2019-04-03T07:42:11.727Z,8.03
2019-04-03T07:47:14.226Z,8.17
2019-04-03T07:52:17.834Z,7.93
2019-04-03T07:57:19.511Z,7.57
2019-04-03T08:02:22.404Z,7.97
2019-04-03T08:07:24.763Z,7.90
2019-04-03T08:12:27.363Z,7.53
2019-04-03T08:17:29.902Z,7.83
2019-04-03T08:22:33.366Z,7.37
2019-04-03T08:27:35.117Z,6.50
2019-04-03T08:32:40.324Z,5.50
2019-04-03T08:37:43.591Z,5.33
2019-04-03T08:42:46.735Z,6.60
2019-04-03T08:47:49.283Z,5.90
2019-04-03T08:52:52.267Z,5.60
2019-04-03T08:57:57.982Z,4.77
2019-04-03T09:03:03.588Z,5.47
2019-04-03T09:08:05.937Z,4.70
2019-04-03T09:13:16.771Z,4.60
2019-04-03T09:18:11.150Z,4.53
2019-04-03T09:23:13.681Z,5.47
2019-04-03T09:28:16.281Z,6.20
2019-04-03T09:33:18.856Z,5.63
2019-04-03T09:38:21.760Z,5.83
2019-04-03T09:43:24.203Z,7.10
2019-04-03T09:48:26.802Z,8.50
2019-04-03T09:53:29.531Z,8.43
2019-04-03T09:58:32.914Z,8.50
2019-04-03T10:03:34.876Z,8.80
2019-04-03T10:08:38.091Z,9.07
2019-04-03T10:13:39.966Z,9.30
2019-04-03T10:18:42.996Z,9.27
2019-04-03T10:23:45.160Z,10.30
2019-04-03T10:28:48.352Z,12.00
2019-04-03T10:33:50.772Z,10.87
2019-04-03T10:38:53.015Z,10.67
2019-04-03T10:43:55.600Z,11.07
2019-04-03T10:49:00.513Z,10.13
2019-04-03T10:54:00.928Z,10.77
2019-04-03T10:59:10.723Z,11.07
2019-04-03T11:04:06.664Z,10.67
2019-04-03T11:09:09.419Z,9.73
2019-04-03T11:14:11.985Z,10.60
2019-04-03T11:19:14.740Z,11.67
2019-04-03T11:24:17.212Z,11.97
2019-04-03T11:29:19.829Z,11.40
2019-04-03T11:34:22.435Z,11.87
2019-04-03T11:39:25.311Z,11.07
2019-04-03T11:44:27.705Z,11.43
2019-04-03T11:49:30.361Z,10.47
2019-04-03T11:54:32.905Z,8.57
2019-04-03T11:59:35.871Z,8.77
2019-04-03T12:04:38.111Z,8.83
2019-04-03T12:09:40.737Z,7.33
2019-04-03T12:14:43.465Z,7.73
2019-04-03T12:19:46.177Z,7.07
2019-04-03T12:24:48.566Z,6.50
2019-04-03T12:29:51.992Z,6.77
2019-04-03T12:34:53.663Z,6.40
2019-04-03T12:39:56.313Z,6.20
2019-04-03T12:44:58.820Z,6.50
2019-04-03T12:50:01.438Z,6.67
2019-04-03T12:55:05.094Z,5.93
2019-04-03T13:00:10.568Z,6.10
2019-04-03T13:05:10.985Z,6.30
2019-04-03T13:10:13.267Z,6.00
2019-04-03T13:15:15.899Z,6.33
2019-04-03T13:20:18.511Z,6.33
2019-04-03T13:25:22.132Z,7.47
2019-04-03T13:30:23.791Z,7.63
2019-04-03T13:35:26.567Z,7.40
2019-04-03T13:40:28.975Z,7.80
2019-04-03T13:45:31.978Z,6.47
2019-04-03T13:50:34.703Z,7.10
2019-04-03T13:55:39.684Z,6.60
2019-04-03T14:00:39.648Z,5.80
2019-04-03T14:05:43.369Z,6.47
2019-04-03T14:10:45.097Z,6.90
2019-04-03T14:15:47.409Z,5.20
2019-04-03T14:20:51.379Z,5.23
2019-04-03T14:26:03.085Z,5.60
2019-04-03T14:30:55.445Z,5.77
2019-04-03T14:35:58.068Z,6.17
2019-04-03T14:41:00.814Z,5.47
2019-04-03T14:51:06.288Z,5.97
2019-04-03T14:56:06.263Z,5.90
2019-04-03T15:01:08.851Z,5.70
2019-04-03T15:06:13.993Z,5.63
2019-04-03T15:11:14.560Z,5.03
2019-04-03T15:16:16.680Z,5.17
2019-04-03T15:21:22.202Z,5.20
2019-04-03T15:26:22.931Z,5.50
2019-04-03T15:31:24.688Z,5.60
2019-04-03T15:36:27.667Z,5.37
2019-04-03T15:41:33.127Z,5.40
2019-04-03T15:46:34.347Z,5.30
2019-04-03T15:51:38.174Z,5.47
2019-04-03T15:56:37.947Z,5.60
2019-04-03T16:01:40.629Z,5.30
2019-04-03T16:06:43.825Z,4.83
2019-04-03T16:11:46.120Z,5.23
2019-04-03T16:16:49.202Z,5.30
2019-04-03T16:21:51.629Z,40.93
2019-04-03T16:26:56.228Z,5.10
2019-04-03T16:31:56.484Z,5.47
2019-04-03T16:36:59.045Z,5.23
2019-04-03T16:42:01.674Z,2.63
2019-04-03T16:47:04.276Z,1.90
2019-04-03T16:52:07.046Z,1.70
2019-04-03T16:57:09.495Z,1.73
2019-04-03T17:02:12.290Z,2.30
2019-04-03T17:07:14.749Z,1.90
2019-04-03T17:12:17.658Z,1.40
2019-04-03T17:17:20.053Z,1.30
2019-04-03T17:22:22.815Z,1.60
2019-04-03T17:27:25.411Z,1.27
2019-04-03T17:32:29.929Z,1.33
2019-04-03T17:37:31.019Z,1.30
2019-04-03T17:42:33.300Z,1.50
2019-04-03T17:47:35.847Z,1.70
2019-04-03T17:52:38.505Z,1.83
2019-04-03T17:57:44.387Z,2.60
2019-04-03T18:02:43.990Z,1.50
2019-04-03T18:07:46.572Z,1.53
2019-04-03T18:12:50.170Z,1.70
2019-04-03T18:17:51.732Z,1.70
2019-04-03T18:22:54.308Z,1.80
2019-04-03T18:27:56.961Z,1.40
2019-04-03T18:32:59.551Z,1.30
2019-04-03T18:38:02.123Z,1.50
2019-04-03T18:43:04.678Z,1.40
2019-04-03T18:48:07.426Z,1.50
2019-04-03T18:53:10.376Z,1.57
2019-04-03T18:58:12.699Z,1.50
2019-04-03T19:03:15.318Z,1.50
2019-04-03T19:08:18.698Z,1.50
2019-04-03T19:13:20.582Z,1.80
2019-04-03T19:18:23.250Z,1.50
2019-04-03T19:23:26.506Z,1.70
2019-04-03T19:28:29.067Z,1.43
2019-04-03T19:33:31.631Z,3.80
2019-04-03T19:38:35.828Z,5.43
2019-04-03T19:43:36.784Z,5.67
2019-04-03T19:48:39.384Z,5.77
2019-04-03T19:53:44.300Z,5.50
2019-04-03T19:58:44.533Z,6.70
2019-04-03T20:03:47.286Z,5.53
2019-04-03T20:08:49.992Z,3.80
2019-04-03T20:13:52.550Z,3.30
2019-04-03T20:18:56.515Z,3.40
2019-04-03T20:23:57.722Z,3.10
2019-04-03T20:29:02.068Z,2.90
2019-04-03T20:34:03.115Z,3.10
2019-04-03T20:39:07.663Z,3.00
2019-04-03T20:44:10.175Z,2.60
2019-04-03T20:49:12.777Z,2.80
2019-04-03T20:54:15.397Z,2.70
2019-04-03T20:59:18.035Z,2.40
2019-04-03T21:04:20.570Z,2.30
2019-04-03T21:09:23.158Z,2.40
2019-04-03T21:14:25.781Z,2.33
2019-04-03T21:19:28.327Z,2.40
2019-04-03T21:24:30.871Z,2.20
2019-04-03T21:29:33.506Z,2.10
2019-04-03T21:34:36.067Z,2.20
2019-04-03T21:39:38.634Z,2.00
2019-04-03T21:44:41.205Z,2.40
2019-04-03T21:49:43.685Z,2.27
2019-04-03T21:54:46.269Z,2.07
2019-04-03T21:59:48.770Z,2.20
2019-04-03T22:04:53.555Z,2.00
2019-04-03T22:09:53.948Z,2.40
2019-04-03T22:14:56.523Z,2.50
2019-04-03T22:19:59.323Z,2.60
2019-04-03T22:25:01.604Z,2.80
2019-04-03T22:30:04.674Z,2.60
2019-04-03T22:35:07.513Z,2.63
2019-04-03T22:40:10.832Z,2.60
2019-04-03T22:45:12.772Z,2.70
2019-04-03T22:50:15.340Z,2.30
2019-04-03T22:55:17.869Z,2.43
2019-04-03T23:00:20.502Z,2.60
2019-04-03T23:05:23.123Z,2.60
2019-04-03T23:10:30.691Z,2.70
2019-04-03T23:15:33.310Z,2.80
2019-04-03T23:20:35.916Z,2.97
2019-04-03T23:25:38.534Z,2.80
2019-04-03T23:30:41.520Z,2.90
2019-04-03T23:35:43.716Z,3.00
2019-04-03T23:40:46.268Z,3.20
2019-04-03T23:45:48.806Z,3.13
2019-04-03T23:50:52.793Z,3.40
2019-04-03T23:55:53.979Z,3.30
